sensor_id;sensor_type;location;lat;lon;timestamp;P1;durP1;ratioP1;P2;durP2;ratioP2
35496;SDS011;21609;49.298;6.844;2023-05-23T00:00:42;7.60;;;7.10;;
35496;SDS011;21609;49.298;6.844;2023-05-23T00:03:08;7.35;;;6.78;;
35496;SDS011;21609;49.298;6.844;2023-05-23T00:05:34;7.07;;;6.57;;
35496;SDS011;21609;49.298;6.844;2023-05-23T00:08:00;7.75;;;7.15;;
35496;SDS011;21609;49.298;6.844;2023-05-23T00:10:26;8.18;;;7.57;;
35496;SDS011;21609;49.298;6.844;2023-05-23T00:12:52;7.82;;;7.22;;
35496;SDS011;21609;49.298;6.844;2023-05-23T00:15:17;7.18;;;6.68;;
35496;SDS011;21609;49.298;6.844;2023-05-23T00:17:43;8.05;;;7.38;;
35496;SDS011;21609;49.298;6.844;2023-05-23T00:20:09;7.55;;;6.97;;
35496;SDS011;21609;49.298;6.844;2023-05-23T00:22:36;7.15;;;6.65;;
35496;SDS011;21609;49.298;6.844;2023-05-23T00:25:06;6.88;;;6.38;;
35496;SDS011;21609;49.298;6.844;2023-05-23T00:27:32;7.40;;;6.80;;
35496;SDS011;21609;49.298;6.844;2023-05-23T00:29:58;8.00;;;7.40;;
35496;SDS011;21609;49.298;6.844;2023-05-23T00:32:23;7.55;;;7.00;;
35496;SDS011;21609;49.298;6.844;2023-05-23T00:34:49;6.88;;;6.35;;
35496;SDS011;21609;49.298;6.844;2023-05-23T00:37:18;7.00;;;6.50;;
35496;SDS011;21609;49.298;6.844;2023-05-23T00:39:44;6.88;;;6.28;;
35496;SDS011;21609;49.298;6.844;2023-05-23T00:42:09;7.43;;;6.93;;
35496;SDS011;21609;49.298;6.844;2023-05-23T00:44:35;7.07;;;6.55;;
35496;SDS011;21609;49.298;6.844;2023-05-23T00:47:01;8.02;;;7.35;;
35496;SDS011;21609;49.298;6.844;2023-05-23T00:49:26;8.25;;;7.65;;
35496;SDS011;21609;49.298;6.844;2023-05-23T00:51:52;7.25;;;6.75;;
35496;SDS011;21609;49.298;6.844;2023-05-23T00:54:25;7.05;;;6.55;;
35496;SDS011;21609;49.298;6.844;2023-05-23T00:56:55;7.38;;;6.78;;
35496;SDS011;21609;49.298;6.844;2023-05-23T00:59:22;7.40;;;6.80;;
35496;SDS011;21609;49.298;6.844;2023-05-23T01:01:49;7.07;;;6.47;;
35496;SDS011;21609;49.298;6.844;2023-05-23T01:04:16;6.93;;;6.43;;
35496;SDS011;21609;49.298;6.844;2023-05-23T01:06:45;7.05;;;6.55;;
35496;SDS011;21609;49.298;6.844;2023-05-23T01:09:13;7.38;;;6.75;;
35496;SDS011;21609;49.298;6.844;2023-05-23T01:17:17;7.47;;;6.93;;
35496;SDS011;21609;49.298;6.844;2023-05-23T01:19:58;7.22;;;6.72;;
35496;SDS011;21609;49.298;6.844;2023-05-23T01:22:39;6.88;;;6.28;;
35496;SDS011;21609;49.298;6.844;2023-05-23T01:27:56;7.65;;;7.05;;
35496;SDS011;21609;49.298;6.844;2023-05-23T01:30:25;7.53;;;7.03;;
35496;SDS011;21609;49.298;6.844;2023-05-23T01:32:54;6.70;;;6.20;;
35496;SDS011;21609;49.298;6.844;2023-05-23T01:35:25;7.32;;;6.72;;
35496;SDS011;21609;49.298;6.844;2023-05-23T01:37:52;7.40;;;6.80;;
35496;SDS011;21609;49.298;6.844;2023-05-23T01:40:18;6.70;;;6.20;;
35496;SDS011;21609;49.298;6.844;2023-05-23T01:42:44;7.35;;;6.75;;
35496;SDS011;21609;49.298;6.844;2023-05-23T01:45:10;6.57;;;6.07;;
35496;SDS011;21609;49.298;6.844;2023-05-23T01:47:37;7.55;;;6.95;;
35496;SDS011;21609;49.298;6.844;2023-05-23T01:50:04;7.10;;;6.60;;
35496;SDS011;21609;49.298;6.844;2023-05-23T01:52:31;6.65;;;6.15;;
35496;SDS011;21609;49.298;6.844;2023-05-23T01:54:57;6.97;;;6.47;;
35496;SDS011;21609;49.298;6.844;2023-05-23T01:57:23;7.18;;;6.68;;
35496;SDS011;21609;49.298;6.844;2023-05-23T01:59:51;7.47;;;6.93;;
35496;SDS011;21609;49.298;6.844;2023-05-23T02:02:16;7.15;;;6.55;;
35496;SDS011;21609;49.298;6.844;2023-05-23T02:04:42;7.43;;;6.82;;
35496;SDS011;21609;49.298;6.844;2023-05-23T02:07:07;6.65;;;6.15;;
35496;SDS011;21609;49.298;6.844;2023-05-23T02:09:33;6.53;;;6.03;;
35496;SDS011;21609;49.298;6.844;2023-05-23T02:11:58;7.22;;;6.68;;
35496;SDS011;21609;49.298;6.844;2023-05-23T02:14:24;7.47;;;6.90;;
35496;SDS011;21609;49.298;6.844;2023-05-23T02:16:52;7.55;;;6.85;;
35496;SDS011;21609;49.298;6.844;2023-05-23T02:19:18;6.97;;;6.47;;
35496;SDS011;21609;49.298;6.844;2023-05-23T02:21:43;7.05;;;6.55;;
35496;SDS011;21609;49.298;6.844;2023-05-23T02:24:09;6.95;;;6.45;;
35496;SDS011;21609;49.298;6.844;2023-05-23T02:26:35;7.15;;;6.65;;
35496;SDS011;21609;49.298;6.844;2023-05-23T02:29:01;7.07;;;6.57;;
35496;SDS011;21609;49.298;6.844;2023-05-23T02:31:26;6.47;;;6.03;;
35496;SDS011;21609;49.298;6.844;2023-05-23T02:33:52;6.90;;;6.40;;
35496;SDS011;21609;49.298;6.844;2023-05-23T02:36:17;7.07;;;6.55;;
35496;SDS011;21609;49.298;6.844;2023-05-23T02:38:43;6.63;;;6.13;;
35496;SDS011;21609;49.298;6.844;2023-05-23T02:41:09;6.45;;;5.95;;
35496;SDS011;21609;49.298;6.844;2023-05-23T02:43:34;6.38;;;5.90;;
35496;SDS011;21609;49.298;6.844;2023-05-23T02:46:00;6.57;;;6.07;;
35496;SDS011;21609;49.298;6.844;2023-05-23T02:48:25;6.68;;;6.18;;
35496;SDS011;21609;49.298;6.844;2023-05-23T02:50:51;7.10;;;6.60;;
35496;SDS011;21609;49.298;6.844;2023-05-23T02:53:16;7.35;;;6.75;;
35496;SDS011;21609;49.298;6.844;2023-05-23T02:55:42;6.80;;;6.30;;
35496;SDS011;21609;49.298;6.844;2023-05-23T02:58:08;7.25;;;6.70;;
35496;SDS011;21609;49.298;6.844;2023-05-23T03:00:33;7.03;;;6.53;;
35496;SDS011;21609;49.298;6.844;2023-05-23T03:03:00;6.57;;;6.07;;
35496;SDS011;21609;49.298;6.844;2023-05-23T03:05:25;6.68;;;6.18;;
35496;SDS011;21609;49.298;6.844;2023-05-23T03:07:51;6.80;;;6.35;;
35496;SDS011;21609;49.298;6.844;2023-05-23T03:10:18;6.95;;;6.45;;
35496;SDS011;21609;49.298;6.844;2023-05-23T03:15:10;6.03;;;5.63;;
35496;SDS011;21609;49.298;6.844;2023-05-23T03:17:36;6.93;;;6.43;;
35496;SDS011;21609;49.298;6.844;2023-05-23T03:20:01;6.97;;;6.47;;
35496;SDS011;21609;49.298;6.844;2023-05-23T03:22:28;6.53;;;6.03;;
35496;SDS011;21609;49.298;6.844;2023-05-23T03:24:53;6.43;;;5.97;;
35496;SDS011;21609;49.298;6.844;2023-05-23T03:27:19;6.57;;;6.07;;
35496;SDS011;21609;49.298;6.844;2023-05-23T03:29:45;6.95;;;6.45;;
35496;SDS011;21609;49.298;6.844;2023-05-23T03:32:12;6.68;;;6.18;;
35496;SDS011;21609;49.298;6.844;2023-05-23T03:34:38;6.50;;;6.03;;
35496;SDS011;21609;49.298;6.844;2023-05-23T03:37:03;6.15;;;5.75;;
35496;SDS011;21609;49.298;6.844;2023-05-23T03:39:29;6.65;;;6.18;;
35496;SDS011;21609;49.298;6.844;2023-05-23T03:41:55;6.50;;;6.00;;
35496;SDS011;21609;49.298;6.844;2023-05-23T03:44:21;7.53;;;6.93;;
35496;SDS011;21609;49.298;6.844;2023-05-23T03:46:46;7.30;;;6.70;;
35496;SDS011;21609;49.298;6.844;2023-05-23T03:49:12;6.57;;;6.13;;
35496;SDS011;21609;49.298;6.844;2023-05-23T03:51:37;6.75;;;6.25;;
35496;SDS011;21609;49.298;6.844;2023-05-23T03:54:03;6.80;;;6.30;;
35496;SDS011;21609;49.298;6.844;2023-05-23T03:56:29;7.05;;;6.55;;
35496;SDS011;21609;49.298;6.844;2023-05-23T03:58:54;6.85;;;6.35;;
35496;SDS011;21609;49.298;6.844;2023-05-23T04:01:20;6.30;;;5.90;;
35496;SDS011;21609;49.298;6.844;2023-05-23T04:03:45;5.97;;;5.57;;
35496;SDS011;21609;49.298;6.844;2023-05-23T04:06:11;6.97;;;6.47;;
35496;SDS011;21609;49.298;6.844;2023-05-23T04:08:37;6.78;;;6.28;;
35496;SDS011;21609;49.298;6.844;2023-05-23T04:11:06;6.95;;;6.45;;
35496;SDS011;21609;49.298;6.844;2023-05-23T04:13:31;6.07;;;5.68;;
35496;SDS011;21609;49.298;6.844;2023-05-23T04:15:58;7.07;;;6.50;;
35496;SDS011;21609;49.298;6.844;2023-05-23T04:18:25;6.03;;;5.63;;
35496;SDS011;21609;49.298;6.844;2023-05-23T04:20:52;5.60;;;5.20;;
35496;SDS011;21609;49.298;6.844;2023-05-23T04:23:18;6.85;;;6.28;;
35496;SDS011;21609;49.298;6.844;2023-05-23T04:25:44;7.00;;;6.38;;
35496;SDS011;21609;49.298;6.844;2023-05-23T04:28:10;6.50;;;6.00;;
35496;SDS011;21609;49.298;6.844;2023-05-23T04:30:36;6.90;;;6.40;;
35496;SDS011;21609;49.298;6.844;2023-05-23T04:33:02;6.40;;;5.90;;
35496;SDS011;21609;49.298;6.844;2023-05-23T04:35:28;6.22;;;5.72;;
35496;SDS011;21609;49.298;6.844;2023-05-23T04:37:56;7.05;;;6.55;;
35496;SDS011;21609;49.298;6.844;2023-05-23T04:40:22;6.55;;;6.05;;
35496;SDS011;21609;49.298;6.844;2023-05-23T04:42:48;6.50;;;6.00;;
35496;SDS011;21609;49.298;6.844;2023-05-23T04:45:15;6.72;;;6.22;;
35496;SDS011;21609;49.298;6.844;2023-05-23T04:47:41;6.47;;;5.97;;
35496;SDS011;21609;49.298;6.844;2023-05-23T04:50:09;6.85;;;6.32;;
35496;SDS011;21609;49.298;6.844;2023-05-23T04:52:34;6.22;;;5.63;;
35496;SDS011;21609;49.298;6.844;2023-05-23T04:55:00;7.05;;;6.47;;
35496;SDS011;21609;49.298;6.844;2023-05-23T04:57:26;6.53;;;6.03;;
35496;SDS011;21609;49.298;6.844;2023-05-23T04:59:51;7.18;;;6.38;;
35496;SDS011;21609;49.298;6.844;2023-05-23T05:02:17;7.30;;;6.70;;
35496;SDS011;21609;49.298;6.844;2023-05-23T05:04:43;6.45;;;6.05;;
35496;SDS011;21609;49.298;6.844;2023-05-23T05:07:09;6.88;;;6.18;;
35496;SDS011;21609;49.298;6.844;2023-05-23T05:09:35;6.38;;;5.88;;
35496;SDS011;21609;49.298;6.844;2023-05-23T05:12:00;6.47;;;5.90;;
35496;SDS011;21609;49.298;6.844;2023-05-23T05:14:26;6.70;;;6.20;;
35496;SDS011;21609;49.298;6.844;2023-05-23T05:16:52;17.58;;;6.97;;
35496;SDS011;21609;49.298;6.844;2023-05-23T05:19:19;6.72;;;6.22;;
35496;SDS011;21609;49.298;6.844;2023-05-23T05:21:45;6.28;;;5.70;;
35496;SDS011;21609;49.298;6.844;2023-05-23T05:24:11;6.72;;;6.22;;
35496;SDS011;21609;49.298;6.844;2023-05-23T05:26:36;6.13;;;5.72;;
35496;SDS011;21609;49.298;6.844;2023-05-23T05:29:02;5.82;;;5.43;;
35496;SDS011;21609;49.298;6.844;2023-05-23T05:31:28;6.40;;;5.90;;
35496;SDS011;21609;49.298;6.844;2023-05-23T05:33:54;6.22;;;5.75;;
35496;SDS011;21609;49.298;6.844;2023-05-23T05:36:20;6.95;;;6.45;;
35496;SDS011;21609;49.298;6.844;2023-05-23T05:38:45;6.15;;;5.75;;
35496;SDS011;21609;49.298;6.844;2023-05-23T05:41:11;6.15;;;5.75;;
35496;SDS011;21609;49.298;6.844;2023-05-23T05:43:37;6.75;;;6.25;;
35496;SDS011;21609;49.298;6.844;2023-05-23T05:46:03;5.97;;;5.57;;
35496;SDS011;21609;49.298;6.844;2023-05-23T05:48:28;6.55;;;6.05;;
35496;SDS011;21609;49.298;6.844;2023-05-23T05:50:54;5.75;;;5.30;;
35496;SDS011;21609;49.298;6.844;2023-05-23T05:53:19;6.13;;;5.70;;
35496;SDS011;21609;49.298;6.844;2023-05-23T05:55:45;6.22;;;5.70;;
35496;SDS011;21609;49.298;6.844;2023-05-23T05:58:11;6.05;;;5.65;;
35496;SDS011;21609;49.298;6.844;2023-05-23T06:00:36;5.63;;;5.15;;
35496;SDS011;21609;49.298;6.844;2023-05-23T06:03:06;6.33;;;5.83;;
35496;SDS011;21609;49.298;6.844;2023-05-23T06:05:32;6.35;;;5.85;;
35496;SDS011;21609;49.298;6.844;2023-05-23T06:07:58;6.25;;;5.75;;
35496;SDS011;21609;49.298;6.844;2023-05-23T06:10:24;6.32;;;5.82;;
35496;SDS011;21609;49.298;6.844;2023-05-23T06:12:50;5.75;;;5.35;;
35496;SDS011;21609;49.298;6.844;2023-05-23T06:15:15;5.90;;;5.50;;
35496;SDS011;21609;49.298;6.844;2023-05-23T06:17:41;5.53;;;5.15;;
35496;SDS011;21609;49.298;6.844;2023-05-23T06:20:08;6.25;;;5.75;;
35496;SDS011;21609;49.298;6.844;2023-05-23T06:22:35;6.95;;;6.45;;
35496;SDS011;21609;49.298;6.844;2023-05-23T06:25:00;6.13;;;5.68;;
35496;SDS011;21609;49.298;6.844;2023-05-23T06:27:26;6.85;;;6.35;;
35496;SDS011;21609;49.298;6.844;2023-05-23T06:29:52;6.68;;;6.18;;
35496;SDS011;21609;49.298;6.844;2023-05-23T06:32:17;6.80;;;6.22;;
35496;SDS011;21609;49.298;6.844;2023-05-23T06:34:43;6.78;;;6.18;;
35496;SDS011;21609;49.298;6.844;2023-05-23T06:37:08;6.93;;;6.30;;
35496;SDS011;21609;49.298;6.844;2023-05-23T06:39:34;6.45;;;5.85;;
35496;SDS011;21609;49.298;6.844;2023-05-23T06:42:00;6.85;;;6.28;;
35496;SDS011;21609;49.298;6.844;2023-05-23T06:44:26;7.00;;;6.30;;
35496;SDS011;21609;49.298;6.844;2023-05-23T06:46:52;6.28;;;5.78;;
35496;SDS011;21609;49.298;6.844;2023-05-23T06:49:21;5.80;;;5.40;;
35496;SDS011;21609;49.298;6.844;2023-05-23T06:51:48;6.93;;;6.22;;
35496;SDS011;21609;49.298;6.844;2023-05-23T06:54:13;7.10;;;6.50;;
35496;SDS011;21609;49.298;6.844;2023-05-23T06:56:39;6.95;;;6.45;;
35496;SDS011;21609;49.298;6.844;2023-05-23T06:59:04;7.35;;;6.75;;
35496;SDS011;21609;49.298;6.844;2023-05-23T07:01:30;6.75;;;6.25;;
35496;SDS011;21609;49.298;6.844;2023-05-23T07:03:56;6.28;;;5.68;;
35496;SDS011;21609;49.298;6.844;2023-05-23T07:06:21;6.57;;;5.97;;
35496;SDS011;21609;49.298;6.844;2023-05-23T07:08:47;7.57;;;6.20;;
35496;SDS011;21609;49.298;6.844;2023-05-23T07:11:12;6.78;;;6.28;;
35496;SDS011;21609;49.298;6.844;2023-05-23T07:13:38;5.95;;;5.55;;
35496;SDS011;21609;49.298;6.844;2023-05-23T07:16:04;6.90;;;6.35;;
35496;SDS011;21609;49.298;6.844;2023-05-23T07:18:30;7.07;;;6.47;;
35496;SDS011;21609;49.298;6.844;2023-05-23T07:20:55;6.85;;;6.28;;
35496;SDS011;21609;49.298;6.844;2023-05-23T07:23:22;7.45;;;6.05;;
35496;SDS011;21609;49.298;6.844;2023-05-23T07:25:50;7.80;;;6.17;;
35496;SDS011;21609;49.298;6.844;2023-05-23T07:28:16;6.40;;;5.90;;
35496;SDS011;21609;49.298;6.844;2023-05-23T07:30:43;6.47;;;5.97;;
35496;SDS011;21609;49.298;6.844;2023-05-23T07:33:09;6.70;;;6.20;;
35496;SDS011;21609;49.298;6.844;2023-05-23T07:35:34;6.53;;;6.03;;
35496;SDS011;21609;49.298;6.844;2023-05-23T07:38:00;6.07;;;5.53;;
35496;SDS011;21609;49.298;6.844;2023-05-23T07:40:25;5.47;;;5.07;;
35496;SDS011;21609;49.298;6.844;2023-05-23T07:42:51;5.97;;;5.50;;
35496;SDS011;21609;49.298;6.844;2023-05-23T07:45:18;6.97;;;6.28;;
35496;SDS011;21609;49.298;6.844;2023-05-23T07:47:43;5.90;;;5.40;;
35496;SDS011;21609;49.298;6.844;2023-05-23T07:50:09;9.30;;;5.63;;
35496;SDS011;21609;49.298;6.844;2023-05-23T07:52:35;8.45;;;6.07;;
35496;SDS011;21609;49.298;6.844;2023-05-23T07:55:00;5.18;;;4.68;;
35496;SDS011;21609;49.298;6.844;2023-05-23T07:57:26;8.60;;;5.70;;
35496;SDS011;21609;49.298;6.844;2023-05-23T07:59:52;6.65;;;5.43;;
35496;SDS011;21609;49.298;6.844;2023-05-23T08:02:18;8.00;;;5.75;;
35496;SDS011;21609;49.298;6.844;2023-05-23T08:04:45;10.15;;;5.65;;
35496;SDS011;21609;49.298;6.844;2023-05-23T08:07:11;8.85;;;5.88;;
35496;SDS011;21609;49.298;6.844;2023-05-23T08:09:37;10.82;;;5.53;;
35496;SDS011;21609;49.298;6.844;2023-05-23T08:12:04;6.13;;;5.53;;
35496;SDS011;21609;49.298;6.844;2023-05-23T08:14:30;5.93;;;5.32;;
35496;SDS011;21609;49.298;6.844;2023-05-23T08:16:56;5.85;;;5.25;;
35496;SDS011;21609;49.298;6.844;2023-05-23T08:19:22;6.40;;;5.80;;
35496;SDS011;21609;49.298;6.844;2023-05-23T08:21:47;6.30;;;5.70;;
35496;SDS011;21609;49.298;6.844;2023-05-23T08:24:13;6.85;;;5.45;;
35496;SDS011;21609;49.298;6.844;2023-05-23T08:26:38;6.38;;;5.78;;
35496;SDS011;21609;49.298;6.844;2023-05-23T08:29:04;6.57;;;5.97;;
35496;SDS011;21609;49.298;6.844;2023-05-23T08:31:30;7.70;;;5.53;;
35496;SDS011;21609;49.298;6.844;2023-05-23T08:33:56;6.60;;;4.93;;
35496;SDS011;21609;49.298;6.844;2023-05-23T08:36:23;6.00;;;5.45;;
35496;SDS011;21609;49.298;6.844;2023-05-23T08:38:49;5.80;;;5.30;;
35496;SDS011;21609;49.298;6.844;2023-05-23T08:41:17;5.80;;;5.18;;
35496;SDS011;21609;49.298;6.844;2023-05-23T08:43:44;6.63;;;5.35;;
35496;SDS011;21609;49.298;6.844;2023-05-23T08:46:10;9.48;;;5.00;;
35496;SDS011;21609;49.298;6.844;2023-05-23T08:48:38;5.55;;;5.05;;
35496;SDS011;21609;49.298;6.844;2023-05-23T08:51:04;6.00;;;4.68;;
35496;SDS011;21609;49.298;6.844;2023-05-23T08:53:32;6.20;;;5.70;;
35496;SDS011;21609;49.298;6.844;2023-05-23T08:56:02;6.50;;;5.35;;
35496;SDS011;21609;49.298;6.844;2023-05-23T08:58:29;8.93;;;5.13;;
35496;SDS011;21609;49.298;6.844;2023-05-23T09:00:55;5.03;;;4.55;;
35496;SDS011;21609;49.298;6.844;2023-05-23T09:03:24;6.07;;;5.07;;
35496;SDS011;21609;49.298;6.844;2023-05-23T09:05:51;5.35;;;4.85;;
35496;SDS011;21609;49.298;6.844;2023-05-23T09:08:18;5.80;;;4.63;;
35496;SDS011;21609;49.298;6.844;2023-05-23T09:10:44;5.53;;;5.07;;
35496;SDS011;21609;49.298;6.844;2023-05-23T09:13:10;5.18;;;4.70;;
35496;SDS011;21609;49.298;6.844;2023-05-23T09:15:35;5.90;;;5.30;;
35496;SDS011;21609;49.298;6.844;2023-05-23T09:18:01;6.40;;;4.90;;
35496;SDS011;21609;49.298;6.844;2023-05-23T09:20:27;5.18;;;4.45;;
35496;SDS011;21609;49.298;6.844;2023-05-23T09:22:53;8.15;;;5.43;;
35496;SDS011;21609;49.298;6.844;2023-05-23T09:25:19;4.53;;;4.13;;
35496;SDS011;21609;49.298;6.844;2023-05-23T09:27:45;5.18;;;4.63;;
35496;SDS011;21609;49.298;6.844;2023-05-23T09:30:11;5.00;;;4.50;;
35496;SDS011;21609;49.298;6.844;2023-05-23T09:32:37;5.10;;;4.70;;
35496;SDS011;21609;49.298;6.844;2023-05-23T09:35:04;4.82;;;4.43;;
35496;SDS011;21609;49.298;6.844;2023-05-23T09:40:01;4.45;;;4.10;;
35496;SDS011;21609;49.298;6.844;2023-05-23T09:42:34;4.38;;;4.07;;
35496;SDS011;21609;49.298;6.844;2023-05-23T09:45:00;5.25;;;4.75;;
35496;SDS011;21609;49.298;6.844;2023-05-23T09:47:26;4.90;;;4.47;;
35496;SDS011;21609;49.298;6.844;2023-05-23T09:49:52;5.60;;;4.25;;
35496;SDS011;21609;49.298;6.844;2023-05-23T09:52:17;5.05;;;4.65;;
35496;SDS011;21609;49.298;6.844;2023-05-23T09:54:46;4.20;;;3.80;;
35496;SDS011;21609;49.298;6.844;2023-05-23T09:57:13;4.07;;;3.65;;
35496;SDS011;21609;49.298;6.844;2023-05-23T09:59:39;10.45;;;4.50;;
35496;SDS011;21609;49.298;6.844;2023-05-23T10:02:07;4.57;;;4.05;;
35496;SDS011;21609;49.298;6.844;2023-05-23T10:04:35;4.78;;;4.38;;
35496;SDS011;21609;49.298;6.844;2023-05-23T10:07:11;7.85;;;4.25;;
35496;SDS011;21609;49.298;6.844;2023-05-23T10:09:39;4.50;;;4.10;;
35496;SDS011;21609;49.298;6.844;2023-05-23T10:12:21;4.47;;;4.07;;
35496;SDS011;21609;49.298;6.844;2023-05-23T10:15:14;4.45;;;4.05;;
35496;SDS011;21609;49.298;6.844;2023-05-23T10:20:28;4.88;;;4.35;;
35496;SDS011;21609;49.298;6.844;2023-05-23T10:22:57;5.13;;;4.53;;
35496;SDS011;21609;49.298;6.844;2023-05-23T10:25:27;4.28;;;3.97;;
35496;SDS011;21609;49.298;6.844;2023-05-23T10:27:56;4.43;;;4.13;;
35496;SDS011;21609;49.298;6.844;2023-05-23T10:30:26;4.25;;;3.95;;
35496;SDS011;21609;49.298;6.844;2023-05-23T10:32:53;4.70;;;4.25;;
35496;SDS011;21609;49.298;6.844;2023-05-23T10:40:50;4.40;;;3.85;;
35496;SDS011;21609;49.298;6.844;2023-05-23T10:43:25;3.95;;;3.65;;
35496;SDS011;21609;49.298;6.844;2023-05-23T10:46:11;4.20;;;3.80;;
35496;SDS011;21609;49.298;6.844;2023-05-23T10:48:41;3.97;;;3.60;;
35496;SDS011;21609;49.298;6.844;2023-05-23T10:51:09;4.18;;;3.80;;
35496;SDS011;21609;49.298;6.844;2023-05-23T10:53:37;3.65;;;3.40;;
35496;SDS011;21609;49.298;6.844;2023-05-23T10:56:04;3.85;;;3.47;;
35496;SDS011;21609;49.298;6.844;2023-05-23T10:58:31;3.72;;;3.17;;
35496;SDS011;21609;49.298;6.844;2023-05-23T11:01:04;3.30;;;3.08;;
35496;SDS011;21609;49.298;6.844;2023-05-23T11:03:31;3.75;;;3.45;;
35496;SDS011;21609;49.298;6.844;2023-05-23T11:06:00;3.50;;;3.20;;
35496;SDS011;21609;49.298;6.844;2023-05-23T11:08:27;4.00;;;3.30;;
35496;SDS011;21609;49.298;6.844;2023-05-23T11:11:02;4.60;;;4.15;;
35496;SDS011;21609;49.298;6.844;2023-05-23T11:16:30;3.88;;;3.58;;
35496;SDS011;21609;49.298;6.844;2023-05-23T11:19:25;4.35;;;3.95;;
35496;SDS011;21609;49.298;6.844;2023-05-23T11:21:58;6.60;;;4.05;;
35496;SDS011;21609;49.298;6.844;2023-05-23T11:27:36;3.45;;;3.15;;
35496;SDS011;21609;49.298;6.844;2023-05-23T11:30:05;3.40;;;3.13;;
35496;SDS011;21609;49.298;6.844;2023-05-23T11:32:32;3.88;;;3.47;;
35496;SDS011;21609;49.298;6.844;2023-05-23T11:34:59;4.20;;;3.90;;
35496;SDS011;21609;49.298;6.844;2023-05-23T11:37:26;4.05;;;3.63;;
35496;SDS011;21609;49.298;6.844;2023-05-23T11:39:51;4.07;;;3.67;;
35496;SDS011;21609;49.298;6.844;2023-05-23T11:42:17;3.20;;;3.00;;
35496;SDS011;21609;49.298;6.844;2023-05-23T11:44:42;3.63;;;3.35;;
35496;SDS011;21609;49.298;6.844;2023-05-23T11:47:09;4.90;;;4.07;;
35496;SDS011;21609;49.298;6.844;2023-05-23T11:49:35;3.97;;;3.67;;
35496;SDS011;21609;49.298;6.844;2023-05-23T11:52:05;3.22;;;3.03;;
35496;SDS011;21609;49.298;6.844;2023-05-23T11:54:31;3.75;;;3.28;;
35496;SDS011;21609;49.298;6.844;2023-05-23T11:56:57;3.33;;;3.13;;
35496;SDS011;21609;49.298;6.844;2023-05-23T11:59:24;3.30;;;3.10;;
35496;SDS011;21609;49.298;6.844;2023-05-23T12:01:54;3.88;;;3.47;;
35496;SDS011;21609;49.298;6.844;2023-05-23T12:04:20;3.30;;;3.00;;
35496;SDS011;21609;49.298;6.844;2023-05-23T12:06:46;4.13;;;3.55;;
35496;SDS011;21609;49.298;6.844;2023-05-23T12:09:12;4.70;;;3.80;;
35496;SDS011;21609;49.298;6.844;2023-05-23T12:11:39;10.15;;;4.60;;
35496;SDS011;21609;49.298;6.844;2023-05-23T12:14:08;4.95;;;3.53;;
35496;SDS011;21609;49.298;6.844;2023-05-23T12:16:39;5.03;;;3.35;;
35496;SDS011;21609;49.298;6.844;2023-05-23T12:19:08;4.37;;;3.47;;
35496;SDS011;21609;49.298;6.844;2023-05-23T12:21:40;4.60;;;3.60;;
35496;SDS011;21609;49.298;6.844;2023-05-23T12:26:45;4.70;;;3.67;;
35496;SDS011;21609;49.298;6.844;2023-05-23T12:29:11;5.80;;;3.50;;
35496;SDS011;21609;49.298;6.844;2023-05-23T12:31:37;5.05;;;3.17;;
35496;SDS011;21609;49.298;6.844;2023-05-23T12:34:03;8.10;;;3.97;;
35496;SDS011;21609;49.298;6.844;2023-05-23T12:36:29;5.40;;;3.63;;
35496;SDS011;21609;49.298;6.844;2023-05-23T12:39:01;5.93;;;3.53;;
35496;SDS011;21609;49.298;6.844;2023-05-23T12:41:27;4.03;;;3.40;;
35496;SDS011;21609;49.298;6.844;2023-05-23T12:43:54;3.50;;;3.20;;
35496;SDS011;21609;49.298;6.844;2023-05-23T12:46:21;6.05;;;3.25;;
35496;SDS011;21609;49.298;6.844;2023-05-23T12:48:48;5.70;;;2.88;;
35496;SDS011;21609;49.298;6.844;2023-05-23T12:51:14;4.03;;;3.33;;
35496;SDS011;21609;49.298;6.844;2023-05-23T12:53:40;3.30;;;3.00;;
35496;SDS011;21609;49.298;6.844;2023-05-23T12:56:06;3.92;;;3.53;;
35496;SDS011;21609;49.298;6.844;2023-05-23T12:58:32;4.03;;;3.55;;
35496;SDS011;21609;49.298;6.844;2023-05-23T13:00:59;4.20;;;3.20;;
35496;SDS011;21609;49.298;6.844;2023-05-23T13:03:25;3.15;;;2.85;;
35496;SDS011;21609;49.298;6.844;2023-05-23T13:05:51;4.57;;;3.42;;
35496;SDS011;21609;49.298;6.844;2023-05-23T13:08:17;3.55;;;3.15;;
35496;SDS011;21609;49.298;6.844;2023-05-23T13:10:44;4.72;;;3.38;;
35496;SDS011;21609;49.298;6.844;2023-05-23T13:13:09;3.22;;;2.92;;
35496;SDS011;21609;49.298;6.844;2023-05-23T13:15:35;6.40;;;2.97;;
35496;SDS011;21609;49.298;6.844;2023-05-23T13:18:01;3.35;;;3.05;;
35496;SDS011;21609;49.298;6.844;2023-05-23T13:20:26;4.13;;;3.45;;
35496;SDS011;21609;49.298;6.844;2023-05-23T13:22:58;4.45;;;3.47;;
35496;SDS011;21609;49.298;6.844;2023-05-23T13:25:25;2.83;;;2.63;;
35496;SDS011;21609;49.298;6.844;2023-05-23T13:27:51;3.40;;;2.83;;
35496;SDS011;21609;49.298;6.844;2023-05-23T13:30:18;4.78;;;3.10;;
35496;SDS011;21609;49.298;6.844;2023-05-23T13:32:44;3.97;;;3.30;;
35496;SDS011;21609;49.298;6.844;2023-05-23T13:35:10;3.67;;;2.65;;
35496;SDS011;21609;49.298;6.844;2023-05-23T13:37:35;3.90;;;3.50;;
35496;SDS011;21609;49.298;6.844;2023-05-23T13:40:02;4.13;;;2.88;;
35496;SDS011;21609;49.298;6.844;2023-05-23T13:42:28;3.63;;;3.30;;
35496;SDS011;21609;49.298;6.844;2023-05-23T13:44:55;5.78;;;2.85;;
35496;SDS011;21609;49.298;6.844;2023-05-23T13:47:20;3.85;;;3.28;;
35496;SDS011;21609;49.298;6.844;2023-05-23T13:49:46;3.22;;;2.95;;
35496;SDS011;21609;49.298;6.844;2023-05-23T13:52:12;5.13;;;3.10;;
35496;SDS011;21609;49.298;6.844;2023-05-23T13:54:38;3.75;;;2.97;;
35496;SDS011;21609;49.298;6.844;2023-05-23T13:57:03;3.60;;;3.20;;
35496;SDS011;21609;49.298;6.844;2023-05-23T13:59:30;5.10;;;3.17;;
35496;SDS011;21609;49.298;6.844;2023-05-23T14:01:56;4.07;;;3.30;;
35496;SDS011;21609;49.298;6.844;2023-05-23T14:04:21;3.40;;;3.10;;
35496;SDS011;21609;49.298;6.844;2023-05-23T14:06:47;3.80;;;3.50;;
35496;SDS011;21609;49.298;6.844;2023-05-23T14:09:13;3.35;;;2.92;;
35496;SDS011;21609;49.298;6.844;2023-05-23T14:11:39;3.25;;;2.92;;
35496;SDS011;21609;49.298;6.844;2023-05-23T14:14:05;3.40;;;3.10;;
35496;SDS011;21609;49.298;6.844;2023-05-23T14:16:30;3.88;;;3.47;;
35496;SDS011;21609;49.298;6.844;2023-05-23T14:18:56;3.92;;;3.42;;
35496;SDS011;21609;49.298;6.844;2023-05-23T14:21:22;3.47;;;3.17;;
35496;SDS011;21609;49.298;6.844;2023-05-23T14:23:47;3.95;;;2.80;;
35496;SDS011;21609;49.298;6.844;2023-05-23T14:26:13;3.22;;;3.03;;
35496;SDS011;21609;49.298;6.844;2023-05-23T14:28:39;3.22;;;2.90;;
35496;SDS011;21609;49.298;6.844;2023-05-23T14:31:04;3.30;;;3.00;;
35496;SDS011;21609;49.298;6.844;2023-05-23T14:33:30;3.47;;;3.17;;
35496;SDS011;21609;49.298;6.844;2023-05-23T14:35:56;3.08;;;2.80;;
35496;SDS011;21609;49.298;6.844;2023-05-23T14:38:21;3.45;;;3.13;;
35496;SDS011;21609;49.298;6.844;2023-05-23T14:40:47;3.63;;;3.33;;
35496;SDS011;21609;49.298;6.844;2023-05-23T14:43:13;3.67;;;3.33;;
35496;SDS011;21609;49.298;6.844;2023-05-23T14:45:39;3.95;;;3.38;;
35496;SDS011;21609;49.298;6.844;2023-05-23T14:48:05;5.38;;;3.33;;
35496;SDS011;21609;49.298;6.844;2023-05-23T14:50:31;4.03;;;3.45;;
35496;SDS011;21609;49.298;6.844;2023-05-23T14:52:57;3.35;;;2.95;;
35496;SDS011;21609;49.298;6.844;2023-05-23T14:55:23;5.05;;;3.00;;
35496;SDS011;21609;49.298;6.844;2023-05-23T14:57:49;3.20;;;2.90;;
35496;SDS011;21609;49.298;6.844;2023-05-23T15:00:15;3.25;;;2.90;;
35496;SDS011;21609;49.298;6.844;2023-05-23T15:02:41;3.60;;;3.13;;
35496;SDS011;21609;49.298;6.844;2023-05-23T15:05:07;3.97;;;3.55;;
35496;SDS011;21609;49.298;6.844;2023-05-23T15:07:32;5.78;;;3.13;;
35496;SDS011;21609;49.298;6.844;2023-05-23T15:09:59;3.40;;;3.10;;
35496;SDS011;21609;49.298;6.844;2023-05-23T15:12:26;3.35;;;3.05;;
35496;SDS011;21609;49.298;6.844;2023-05-23T15:14:52;5.20;;;3.10;;